createdAt,value
2017-12-06T00:00:27.300Z,18.60
2017-12-06T00:02:53.429Z,15.82
2017-12-06T00:05:19.868Z,16.58
2017-12-06T00:07:45.952Z,15.40
2017-12-06T00:10:12.787Z,19.02
2017-12-06T00:12:45.088Z,17.27
2017-12-06T00:15:17.425Z,15.25
2017-12-06T00:17:43.744Z,20.85
2017-12-06T00:20:10.813Z,17.87
2017-12-06T00:22:37.252Z,17.37
2017-12-06T00:25:03.740Z,17.73
2017-12-06T00:27:31.235Z,20.30
2017-12-06T00:29:57.533Z,17.87
2017-12-06T00:32:23.828Z,14.48
2017-12-06T00:34:50.121Z,16.08
2017-12-06T00:37:16.416Z,15.05
2017-12-06T00:39:42.694Z,16.67
2017-12-06T00:42:09.719Z,21.37
2017-12-06T00:44:36.786Z,17.02
2017-12-06T00:47:03.101Z,17.52
2017-12-06T00:49:29.420Z,18.60
2017-12-06T00:51:55.715Z,15.50
2017-12-06T00:54:22.897Z,15.82
2017-12-06T00:56:49.241Z,18.12
2017-12-06T00:59:15.560Z,15.40
2017-12-06T01:01:41.834Z,15.75
2017-12-06T01:04:08.153Z,15.05
2017-12-06T01:06:34.735Z,14.25
2017-12-06T01:09:01.021Z,14.32
2017-12-06T01:11:28.033Z,17.42
2017-12-06T01:13:54.304Z,17.67
2017-12-06T01:16:20.606Z,16.87
2017-12-06T01:18:46.957Z,14.65
2017-12-06T01:21:13.252Z,15.38
2017-12-06T01:23:39.603Z,16.37
2017-12-06T01:26:05.878Z,15.02
2017-12-06T01:28:32.552Z,17.02
2017-12-06T01:30:58.825Z,15.32
2017-12-06T01:33:25.185Z,14.95
2017-12-06T01:35:52.382Z,19.15
2017-12-06T01:38:18.695Z,15.98
2017-12-06T01:40:45.001Z,16.45
2017-12-06T01:43:11.298Z,17.65
2017-12-06T01:45:37.634Z,14.82
2017-12-06T01:48:04.664Z,18.60
2017-12-06T01:50:30.993Z,15.48
2017-12-06T01:52:57.306Z,17.08
2017-12-06T01:55:23.570Z,19.25
2017-12-06T01:57:49.882Z,15.55
2017-12-06T02:00:16.921Z,16.87
2017-12-06T02:02:43.227Z,15.88
2017-12-06T02:05:09.553Z,17.48
2017-12-06T02:07:35.867Z,18.52
2017-12-06T02:10:02.937Z,19.23
2017-12-06T02:12:29.219Z,17.90
2017-12-06T02:14:55.541Z,14.18
2017-12-06T02:17:21.846Z,15.27
2017-12-06T02:19:48.132Z,16.80
2017-12-06T02:22:14.415Z,19.42
2017-12-06T02:24:40.730Z,17.33
2017-12-06T02:27:07.051Z,15.02
2017-12-06T02:29:33.376Z,18.00
2017-12-06T02:31:59.660Z,17.12
2017-12-06T02:34:25.973Z,17.77
2017-12-06T02:36:52.269Z,21.42
2017-12-06T02:39:18.582Z,17.45
2017-12-06T02:41:57.127Z,18.87
2017-12-06T02:44:35.870Z,19.77
2017-12-06T02:47:02.163Z,21.42
2017-12-06T02:49:28.448Z,15.20
2017-12-06T02:51:55.989Z,20.33
2017-12-06T02:54:22.352Z,17.75
2017-12-06T02:56:48.658Z,18.62
2017-12-06T02:59:14.982Z,16.75
2017-12-06T03:01:41.297Z,19.37
2017-12-06T03:04:07.628Z,21.80
2017-12-06T03:06:33.968Z,18.92
2017-12-06T03:09:00.293Z,19.60
2017-12-06T03:11:27.368Z,24.30
2017-12-06T03:13:53.699Z,18.35
2017-12-06T03:16:20.044Z,18.12
2017-12-06T03:18:47.124Z,20.52
2017-12-06T03:21:13.443Z,18.50
2017-12-06T03:23:39.831Z,21.77
2017-12-06T03:26:06.157Z,20.88
2017-12-06T03:28:33.200Z,17.35
2017-12-06T03:31:00.289Z,21.55
2017-12-06T03:33:26.877Z,19.23
2017-12-06T03:35:53.305Z,19.20
2017-12-06T03:38:19.620Z,21.10
2017-12-06T03:40:45.946Z,19.48
2017-12-06T03:43:12.252Z,19.95
2017-12-06T03:45:38.541Z,24.85
2017-12-06T03:48:04.968Z,19.58
2017-12-06T03:50:31.299Z,21.98
2017-12-06T03:52:57.632Z,22.20
2017-12-06T03:55:23.961Z,20.30
2017-12-06T03:57:50.288Z,25.20
2017-12-06T04:00:16.639Z,26.95
2017-12-06T04:02:42.956Z,24.25
2017-12-06T04:05:10.049Z,24.73
2017-12-06T04:07:36.427Z,23.50
2017-12-06T04:10:02.761Z,22.45
2017-12-06T04:12:29.822Z,21.30
2017-12-06T04:14:56.855Z,28.85
2017-12-06T04:17:23.146Z,22.08
2017-12-06T04:19:49.496Z,22.73
2017-12-06T04:22:15.848Z,24.37
2017-12-06T04:24:42.182Z,22.80
2017-12-06T04:27:08.513Z,22.65
2017-12-06T04:29:34.850Z,23.40
2017-12-06T04:32:01.901Z,24.05
2017-12-06T04:34:30.096Z,26.30
2017-12-06T04:36:56.409Z,23.87
2017-12-06T04:39:22.784Z,23.40
2017-12-06T04:41:49.109Z,21.25
2017-12-06T04:44:15.438Z,21.55
2017-12-06T04:46:41.768Z,21.30
2017-12-06T04:49:08.073Z,23.27
2017-12-06T04:51:35.156Z,21.20
2017-12-06T04:54:01.513Z,23.65
2017-12-06T04:56:27.845Z,25.83
2017-12-06T04:58:54.196Z,23.75
2017-12-06T05:01:20.531Z,25.25
2017-12-06T05:03:47.612Z,23.80
2017-12-06T05:06:13.971Z,22.48
2017-12-06T05:08:40.307Z,21.45
2017-12-06T05:11:08.497Z,24.75
2017-12-06T05:13:35.173Z,23.02
2017-12-06T05:16:01.562Z,20.92
2017-12-06T05:18:27.887Z,26.80
2017-12-06T05:20:54.195Z,24.10
2017-12-06T05:23:21.263Z,26.27
2017-12-06T05:25:47.718Z,22.37
2017-12-06T05:28:14.032Z,20.52
2017-12-06T05:30:40.438Z,21.35
2017-12-06T05:33:06.776Z,22.35
2017-12-06T05:35:33.101Z,21.60
2017-12-06T05:37:59.478Z,20.77
2017-12-06T05:40:25.794Z,21.30
2017-12-06T05:42:52.137Z,22.73
2017-12-06T05:45:18.469Z,21.70
2017-12-06T05:47:44.817Z,19.67
2017-12-06T05:50:11.131Z,22.80
2017-12-06T05:52:37.449Z,24.05
2017-12-06T05:55:03.801Z,20.17
2017-12-06T05:57:30.109Z,21.58
2017-12-06T05:59:56.411Z,22.08
2017-12-06T06:02:23.510Z,23.77
2017-12-06T06:04:49.838Z,19.58
2017-12-06T06:07:16.301Z,18.90
2017-12-06T06:09:42.642Z,22.00
2017-12-06T06:12:08.993Z,19.02
2017-12-06T06:14:35.338Z,17.42
2017-12-06T06:17:01.700Z,21.70
2017-12-06T06:19:28.027Z,21.52
2017-12-06T06:21:54.371Z,21.10
2017-12-06T06:24:20.687Z,21.50
2017-12-06T06:26:50.213Z,22.25
2017-12-06T06:29:17.280Z,20.55
2017-12-06T06:31:44.369Z,24.02
2017-12-06T06:34:11.550Z,19.23
2017-12-06T06:36:37.874Z,19.55
2017-12-06T06:39:04.203Z,18.98
2017-12-06T06:41:33.691Z,19.33
2017-12-06T06:44:00.017Z,21.50
2017-12-06T06:46:26.349Z,17.83
2017-12-06T06:48:52.683Z,18.30
2017-12-06T06:51:19.044Z,18.42
2017-12-06T06:53:46.286Z,18.05
2017-12-06T06:56:12.642Z,17.50
2017-12-06T06:58:38.976Z,18.52
2017-12-06T07:01:05.341Z,18.60
2017-12-06T07:03:31.722Z,19.73
2017-12-06T07:05:58.104Z,17.80
2017-12-06T07:08:25.199Z,19.08
2017-12-06T07:10:51.536Z,21.70
2017-12-06T07:13:18.617Z,15.43
2017-12-06T07:15:44.956Z,18.55
2017-12-06T07:18:22.966Z,17.25
2017-12-06T07:20:49.821Z,16.62
2017-12-06T07:23:16.205Z,20.42
2017-12-06T07:25:42.597Z,17.42
2017-12-06T07:28:09.005Z,20.85
2017-12-06T07:30:35.361Z,21.55
2017-12-06T07:33:01.693Z,18.80
2017-12-06T07:35:29.474Z,17.50
2017-12-06T07:37:55.861Z,15.63
2017-12-06T07:40:22.972Z,16.17
2017-12-06T07:42:49.096Z,16.25
2017-12-06T07:45:15.436Z,16.83
2017-12-06T07:47:44.984Z,21.20
2017-12-06T07:50:11.442Z,17.83
2017-12-06T07:52:38.566Z,15.70
2017-12-06T07:55:04.904Z,17.60
2017-12-06T07:57:31.248Z,21.85
2017-12-06T07:59:58.326Z,17.20
2017-12-06T08:02:25.383Z,15.70
2017-12-06T08:04:52.346Z,16.87
2017-12-06T08:07:18.742Z,14.57
2017-12-06T08:09:45.086Z,14.68
2017-12-06T08:12:11.434Z,13.80
2017-12-06T08:14:38.143Z,15.23
2017-12-06T08:17:06.225Z,16.00
2017-12-06T08:19:33.300Z,16.87
2017-12-06T08:21:59.652Z,15.85
2017-12-06T08:24:25.989Z,16.02
2017-12-06T08:26:53.106Z,15.07
2017-12-06T08:29:19.464Z,17.83
2017-12-06T08:31:45.853Z,15.95
2017-12-06T08:34:12.979Z,15.68
2017-12-06T08:36:39.129Z,11.65
2017-12-06T08:39:05.260Z,13.98
2017-12-06T08:41:32.155Z,17.23
2017-12-06T08:43:58.511Z,13.88
2017-12-06T08:46:24.910Z,14.15
2017-12-06T08:48:51.249Z,13.23
2017-12-06T08:51:17.571Z,15.25
2017-12-06T08:53:44.628Z,14.05
2017-12-06T08:56:11.062Z,10.82
2017-12-06T08:58:37.464Z,11.52
2017-12-06T09:01:04.559Z,11.18
2017-12-06T09:03:30.916Z,15.90
2017-12-06T09:05:59.725Z,10.68
2017-12-06T09:08:26.189Z,10.25
2017-12-06T09:10:52.660Z,12.30
2017-12-06T09:13:19.039Z,12.52
2017-12-06T09:15:46.103Z,10.05
2017-12-06T09:18:12.257Z,11.82
2017-12-06T09:20:44.396Z,13.73
2017-12-06T09:23:11.262Z,10.88
2017-12-06T09:25:38.191Z,10.75
2017-12-06T09:28:04.340Z,10.63
2017-12-06T09:30:30.530Z,13.23
2017-12-06T09:32:57.474Z,9.27
2017-12-06T09:37:54.852Z,10.68
2017-12-06T09:40:22.273Z,10.27
2017-12-06T09:42:48.404Z,19.95
2017-12-06T09:45:14.555Z,11.68
2017-12-06T09:47:41.602Z,11.00
2017-12-06T09:50:07.801Z,10.90
2017-12-06T09:52:36.064Z,10.77
2017-12-06T09:55:02.273Z,11.60
2017-12-06T09:57:28.409Z,11.82
2017-12-06T09:59:54.539Z,12.63
2017-12-06T10:02:20.685Z,12.60
2017-12-06T10:04:46.830Z,9.43
2017-12-06T10:07:12.958Z,12.63
2017-12-06T10:12:11.094Z,9.38
2017-12-06T10:14:37.282Z,9.80
2017-12-06T10:19:36.201Z,14.52
2017-12-06T10:22:08.601Z,9.88
2017-12-06T10:24:35.526Z,10.10
2017-12-06T10:27:01.710Z,9.95
2017-12-06T10:29:27.873Z,13.13
2017-12-06T10:31:54.029Z,15.68
2017-12-06T10:34:20.937Z,8.88
2017-12-06T10:36:47.068Z,12.00
2017-12-06T10:39:17.529Z,6.68
2017-12-06T10:41:43.710Z,10.02
2017-12-06T10:44:09.902Z,12.13
2017-12-06T10:46:36.044Z,10.05
2017-12-06T10:49:02.214Z,11.15
2017-12-06T10:51:28.364Z,10.23
2017-12-06T10:53:54.487Z,10.35
2017-12-06T10:56:23.964Z,11.05
2017-12-06T10:58:50.061Z,9.35
2017-12-06T11:01:16.166Z,10.68
2017-12-06T11:03:42.286Z,10.48
2017-12-06T11:06:08.410Z,8.90
2017-12-06T11:08:34.522Z,8.80
2017-12-06T11:11:00.745Z,8.07
2017-12-06T11:13:26.895Z,8.43
2017-12-06T11:18:26.025Z,8.02
2017-12-06T11:20:52.302Z,6.37
2017-12-06T11:23:18.413Z,9.02
2017-12-06T11:25:44.548Z,7.50
2017-12-06T11:28:10.694Z,6.75
2017-12-06T11:30:36.796Z,10.15
2017-12-06T11:33:04.221Z,12.05
2017-12-06T11:35:31.145Z,13.60
2017-12-06T11:37:57.249Z,11.30
2017-12-06T11:40:23.364Z,11.07
2017-12-06T11:42:49.472Z,9.48
2017-12-06T11:45:15.608Z,10.82
2017-12-06T11:47:41.725Z,10.68
2017-12-06T11:50:15.684Z,9.32
2017-12-06T11:52:41.851Z,10.32
2017-12-06T11:55:08.008Z,10.38
2017-12-06T11:57:34.174Z,8.48
2017-12-06T12:00:00.320Z,10.23
2017-12-06T12:02:26.438Z,13.48
2017-12-06T12:04:57.888Z,13.32
2017-12-06T12:07:24.044Z,10.90
2017-12-06T12:09:50.172Z,8.77
2017-12-06T12:12:16.298Z,9.57
2017-12-06T12:14:42.444Z,12.30
2017-12-06T12:17:08.552Z,12.32
2017-12-06T12:19:34.680Z,16.17
2017-12-06T12:22:00.800Z,11.43
2017-12-06T12:24:33.281Z,11.12
2017-12-06T12:26:59.434Z,12.30
2017-12-06T12:29:25.677Z,10.43
2017-12-06T12:31:52.585Z,9.15
2017-12-06T12:34:18.702Z,12.90
2017-12-06T12:36:44.822Z,11.88
2017-12-06T12:39:11.718Z,10.68
2017-12-06T12:41:46.508Z,9.52
2017-12-06T12:44:12.659Z,9.77
2017-12-06T12:46:38.817Z,9.32
2017-12-06T12:49:04.942Z,13.90
2017-12-06T12:51:31.852Z,12.90
2017-12-06T12:53:58.000Z,11.90
2017-12-06T12:56:24.128Z,10.45
2017-12-06T12:58:50.295Z,10.35
2017-12-06T13:01:19.116Z,13.23
2017-12-06T13:03:45.234Z,12.68
2017-12-06T13:06:11.378Z,13.88
2017-12-06T13:08:37.541Z,11.12
2017-12-06T13:11:04.424Z,13.60
2017-12-06T13:13:30.560Z,11.57
2017-12-06T13:15:56.716Z,10.40
2017-12-06T13:18:28.028Z,10.45
2017-12-06T13:20:54.190Z,12.37
2017-12-06T13:23:20.310Z,14.35
2017-12-06T13:25:46.459Z,13.43
2017-12-06T13:28:12.596Z,9.60
2017-12-06T13:30:39.472Z,12.23
2017-12-06T13:33:06.357Z,14.05
2017-12-06T13:35:36.326Z,11.60
2017-12-06T13:38:02.486Z,13.75
2017-12-06T13:40:29.396Z,14.43
2017-12-06T13:42:55.524Z,13.10
2017-12-06T13:45:21.727Z,13.27
2017-12-06T13:47:47.836Z,11.68
2017-12-06T13:50:14.022Z,14.18
2017-12-06T13:52:41.581Z,13.43
2017-12-06T13:55:08.464Z,10.98
2017-12-06T13:57:35.489Z,12.88
2017-12-06T14:00:01.702Z,13.77
2017-12-06T14:02:28.619Z,10.43
2017-12-06T14:04:54.718Z,12.52
2017-12-06T14:07:20.863Z,11.12
2017-12-06T14:09:50.961Z,11.20
2017-12-06T14:12:17.116Z,12.77
2017-12-06T14:14:43.251Z,10.20
2017-12-06T14:17:09.398Z,12.40
2017-12-06T14:19:35.560Z,13.32
2017-12-06T14:22:01.729Z,11.88
2017-12-06T14:24:27.873Z,15.73
2017-12-06T14:26:54.014Z,11.02
2017-12-06T14:29:20.881Z,12.50
2017-12-06T14:31:47.021Z,13.93
2017-12-06T14:34:13.208Z,10.93
2017-12-06T14:36:39.392Z,11.52
2017-12-06T14:39:06.288Z,13.90
2017-12-06T14:41:32.424Z,10.20
2017-12-06T14:43:58.601Z,13.73
2017-12-06T14:46:30.026Z,13.13
2017-12-06T14:48:56.965Z,14.32
2017-12-06T14:51:23.087Z,15.55
2017-12-06T14:53:49.456Z,12.15
2017-12-06T14:56:15.633Z,10.07
2017-12-06T14:58:41.977Z,12.40
2017-12-06T15:01:08.096Z,10.00
2017-12-06T15:03:35.882Z,11.25
2017-12-06T15:06:02.248Z,12.55
2017-12-06T15:08:29.404Z,11.10
2017-12-06T15:10:55.776Z,12.65
2017-12-06T15:13:22.102Z,11.93
2017-12-06T15:15:49.184Z,11.82
2017-12-06T15:20:46.898Z,10.63
2017-12-06T15:23:13.017Z,11.65
2017-12-06T15:25:39.170Z,11.55
2017-12-06T15:28:05.311Z,14.02
2017-12-06T15:30:31.450Z,16.52
2017-12-06T15:32:58.320Z,13.82
2017-12-06T15:35:28.160Z,12.70
2017-12-06T15:37:54.424Z,13.95
2017-12-06T15:40:20.563Z,11.02
2017-12-06T15:42:46.685Z,11.77
2017-12-06T15:45:13.613Z,12.37
2017-12-06T15:47:39.894Z,13.38
2017-12-06T15:52:38.217Z,14.10
2017-12-06T15:55:05.131Z,12.10
2017-12-06T15:57:31.282Z,14.32
2017-12-06T15:59:57.442Z,22.62
2017-12-06T16:02:23.576Z,14.20
2017-12-06T16:04:49.702Z,19.27
2017-12-06T16:07:19.256Z,20.15
2017-12-06T16:09:46.532Z,17.23
2017-12-06T16:12:14.005Z,13.20
2017-12-06T16:14:40.194Z,12.57
2017-12-06T16:17:07.085Z,14.27
2017-12-06T16:19:33.996Z,13.60
2017-12-06T16:22:00.141Z,13.15
2017-12-06T16:24:26.317Z,13.18
2017-12-06T16:26:53.292Z,15.65
2017-12-06T16:29:21.715Z,17.95
2017-12-06T16:31:48.678Z,16.15
2017-12-06T16:34:15.047Z,18.25
2017-12-06T16:36:57.098Z,13.95
2017-12-06T16:39:23.241Z,13.90
2017-12-06T16:41:49.462Z,18.33
2017-12-06T16:44:15.632Z,14.20
2017-12-06T16:46:41.798Z,12.45
2017-12-06T16:49:08.720Z,14.32
2017-12-06T16:51:34.987Z,15.60
2017-12-06T16:54:01.265Z,15.63
2017-12-06T16:56:27.792Z,16.23
2017-12-06T16:58:54.022Z,17.98
2017-12-06T17:01:20.201Z,17.12
2017-12-06T17:03:46.357Z,17.83
2017-12-06T17:06:12.464Z,18.20
2017-12-06T17:08:39.349Z,19.52
2017-12-06T17:11:05.622Z,18.25
2017-12-06T17:13:34.722Z,19.50
2017-12-06T17:16:02.889Z,20.40
2017-12-06T17:18:29.114Z,20.05
2017-12-06T17:20:56.002Z,23.23
2017-12-06T17:23:22.151Z,21.98
2017-12-06T17:25:51.358Z,20.30
2017-12-06T17:28:31.349Z,21.98
2017-12-06T17:31:10.595Z,19.55
2017-12-06T17:33:36.772Z,16.08
2017-12-06T17:36:03.707Z,22.83
2017-12-06T17:38:30.806Z,22.15
2017-12-06T17:40:56.924Z,17.58
2017-12-06T17:43:23.792Z,18.60
2017-12-06T17:45:49.964Z,19.62
2017-12-06T17:48:17.326Z,18.80
2017-12-06T17:50:43.485Z,16.95
2017-12-06T17:53:09.664Z,19.35
2017-12-06T17:55:35.954Z,19.52
2017-12-06T17:58:02.078Z,21.58
2017-12-06T18:00:31.000Z,20.15
2017-12-06T18:02:57.225Z,21.27
2017-12-06T18:05:23.369Z,23.00
2017-12-06T18:07:49.634Z,19.20
2017-12-06T18:10:15.816Z,29.83
2017-12-06T18:12:41.965Z,22.33
2017-12-06T18:15:08.878Z,22.08
2017-12-06T18:17:35.123Z,20.83
2017-12-06T18:20:01.236Z,16.67
2017-12-06T18:22:27.371Z,16.98
2017-12-06T18:24:53.548Z,18.67
2017-12-06T18:27:19.678Z,18.33
2017-12-06T18:29:45.820Z,20.62
2017-12-06T18:32:11.940Z,21.98
2017-12-06T18:34:38.323Z,21.83
2017-12-06T18:37:04.648Z,19.42
2017-12-06T18:39:31.053Z,18.85
2017-12-06T18:41:58.124Z,18.55
2017-12-06T18:44:24.925Z,20.80
2017-12-06T18:46:51.291Z,19.02
2017-12-06T18:49:17.628Z,20.25
2017-12-06T18:51:44.024Z,21.00
2017-12-06T18:54:10.358Z,20.75
2017-12-06T18:56:36.793Z,20.33
2017-12-06T18:59:03.910Z,18.92
2017-12-06T19:01:30.258Z,18.08
2017-12-06T19:03:56.604Z,19.12
2017-12-06T19:06:23.724Z,19.45
2017-12-06T19:08:50.152Z,22.25
2017-12-06T19:11:16.507Z,17.90
2017-12-06T19:13:42.886Z,17.95
2017-12-06T19:16:09.317Z,16.85
2017-12-06T19:18:37.775Z,22.00
2017-12-06T19:21:04.122Z,21.27
2017-12-06T19:23:30.648Z,18.25
2017-12-06T19:25:57.028Z,16.20
2017-12-06T19:28:23.394Z,18.77
2017-12-06T19:30:49.726Z,18.65
2017-12-06T19:33:16.151Z,20.90
2017-12-06T19:35:42.491Z,18.90
2017-12-06T19:38:08.833Z,19.17
2017-12-06T19:40:35.210Z,18.87
2017-12-06T19:43:02.314Z,20.73
2017-12-06T19:45:28.642Z,16.70
2017-12-06T19:47:55.055Z,24.35
2017-12-06T19:50:24.486Z,19.15
2017-12-06T19:52:50.796Z,20.25
2017-12-06T19:55:17.111Z,18.55
2017-12-06T19:57:43.466Z,20.60
2017-12-06T20:00:09.813Z,18.92
2017-12-06T20:02:36.244Z,21.60
2017-12-06T20:05:03.318Z,19.15
2017-12-06T20:07:30.270Z,19.77
2017-12-06T20:09:57.319Z,19.52
2017-12-06T20:12:25.113Z,21.15
2017-12-06T20:14:52.221Z,19.67
2017-12-06T20:17:18.571Z,26.65
2017-12-06T20:19:44.909Z,18.85
2017-12-06T20:22:11.235Z,20.02
2017-12-06T20:24:37.545Z,24.92
2017-12-06T20:27:04.791Z,19.95
2017-12-06T20:29:31.646Z,19.98
2017-12-06T20:31:57.773Z,20.98
2017-12-06T20:34:24.017Z,19.33
2017-12-06T20:36:50.207Z,42.40
2017-12-06T20:39:17.623Z,22.25
2017-12-06T20:41:43.965Z,20.98
2017-12-06T20:44:10.363Z,19.50
2017-12-06T20:46:36.762Z,22.40
2017-12-06T20:49:03.087Z,20.12
2017-12-06T20:51:30.188Z,21.00
2017-12-06T20:53:56.545Z,19.87
2017-12-06T20:56:22.967Z,20.60
2017-12-06T20:58:49.329Z,20.67
2017-12-06T21:01:16.632Z,18.45
2017-12-06T21:03:43.538Z,20.20
2017-12-06T21:06:09.749Z,20.45
2017-12-06T21:08:36.094Z,20.05
2017-12-06T21:11:02.197Z,19.10
2017-12-06T21:13:28.422Z,20.25
2017-12-06T21:15:55.280Z,18.52
2017-12-06T21:18:25.199Z,19.83
2017-12-06T21:20:51.340Z,19.42
2017-12-06T21:23:17.672Z,19.48
2017-12-06T21:25:44.538Z,18.83
2017-12-06T21:28:12.253Z,15.32
2017-12-06T21:30:38.401Z,15.43
2017-12-06T21:33:04.587Z,17.67
2017-12-06T21:35:31.452Z,17.17
2017-12-06T21:37:58.325Z,17.60
2017-12-06T21:40:24.438Z,15.10
2017-12-06T21:42:52.929Z,13.38
2017-12-06T21:45:19.776Z,14.43
2017-12-06T21:47:45.901Z,16.58
2017-12-06T21:50:12.821Z,14.82
2017-12-06T21:52:38.952Z,14.70
2017-12-06T21:55:05.171Z,13.73
2017-12-06T21:57:31.309Z,15.13
2017-12-06T21:59:57.457Z,11.63
2017-12-06T22:02:23.627Z,13.52
2017-12-06T22:05:02.584Z,12.10
2017-12-06T22:07:30.051Z,11.45
2017-12-06T22:09:56.168Z,10.38
2017-12-06T22:12:23.031Z,12.35
2017-12-06T22:14:49.960Z,12.77
2017-12-06T22:17:16.156Z,12.85
2017-12-06T22:19:42.335Z,10.93
2017-12-06T22:22:08.437Z,12.10
2017-12-06T22:24:34.617Z,12.18
2017-12-06T22:27:00.730Z,12.25
2017-12-06T22:29:26.864Z,11.10
2017-12-06T22:31:55.852Z,11.23
2017-12-06T22:34:21.991Z,9.02
2017-12-06T22:36:48.086Z,9.85
2017-12-06T22:39:14.236Z,7.90
2017-12-06T22:41:41.242Z,10.02
2017-12-06T22:44:07.433Z,9.55
2017-12-06T22:46:33.544Z,13.82
2017-12-06T22:48:59.689Z,10.43
2017-12-06T22:51:25.820Z,7.53
2017-12-06T22:53:51.949Z,8.07
2017-12-06T22:56:18.085Z,6.95
2017-12-06T22:58:44.968Z,7.50
2017-12-06T23:01:11.089Z,7.28
2017-12-06T23:03:37.220Z,8.55
2017-12-06T23:06:03.361Z,7.70
2017-12-06T23:08:29.489Z,5.65
2017-12-06T23:10:55.617Z,4.25
2017-12-06T23:13:22.540Z,5.53
2017-12-06T23:15:49.210Z,6.72
2017-12-06T23:18:15.531Z,6.40
2017-12-06T23:20:41.861Z,6.18
2017-12-06T23:23:08.207Z,5.80
2017-12-06T23:25:34.542Z,4.80
2017-12-06T23:28:00.874Z,5.32
2017-12-06T23:30:27.188Z,6.90
2017-12-06T23:32:53.742Z,6.12
2017-12-06T23:35:20.658Z,6.95
2017-12-06T23:37:47.002Z,5.93
2017-12-06T23:40:13.323Z,6.78
2017-12-06T23:42:39.745Z,6.07
2017-12-06T23:45:06.856Z,5.60
2017-12-06T23:47:33.200Z,8.60
2017-12-06T23:49:59.606Z,5.72
2017-12-06T23:52:26.496Z,7.12
2017-12-06T23:54:52.697Z,7.55
2017-12-06T23:57:18.801Z,6.18
2017-12-06T23:59:44.903Z,5.00
